Tumble, United Kingdom
Current Conditions -  °F | °C
As of 4:50 PM on Tuesday 21 Oct 2014 (Local Time) from EGOP Reporting Station
Clear Clear  
Wind Chill: 54°   Ceiling: Unl
Heat Index: 54°   Visibility: 6mi
Dew Point: 41°   Wind: 36mph
Humidity: 62%   Direction: 300°WNW
Pressure: 30.03"   Gusts: NA
Location:  51.78°N, 4.11°W
Report Text: EGOP 211550Z AUTO 30031KT 9999 // NCD 12/05 Q1017
Loading
Personal Weather Stations






























Interactive Weather Map
Tropical Storm Tracking
New forecast layout! Learn more

10-Day Weather Forecast

Advertisements
Track Severe Weather on mobile